Terminal Aerodrome Forecast
Issued by NWS Wichita, KS

Home | Current Version | Previous Version | Text Only | Print | Product List | Glossary On
Versions: 1 2 3 4 5 6 7 8 9 10 11 12 13 14 15 16 17 18 19 20 21 22 23 24
000
FTUS43 KICT 200712 AAB
TAFICT
TAF AMD
KICT 200712Z 2007/2106 36017G25KT P6SM BKN006 OVC025
      TEMPO 2007/2011 SCT010 OVC025
     FM201100 36013KT P6SM OVC008
     FM201500 36013KT P6SM OVC013
     FM201800 36013KT P6SM OVC018=

USA.gov is the U.S. government's official web portal to all federal, state and local government web resources and services.